sensor_id;sensor_type;location;lat;lon;timestamp;pressure;altitude;pressure_sealevel;temperature;humidity
75447;BME280;64024;55.820;37.574;2023-02-01T00:00:47;97467.47;;;16.29;45.90
75447;BME280;64024;55.820;37.574;2023-02-01T00:03:12;97473.66;;;16.30;45.73
75447;BME280;64024;55.820;37.574;2023-02-01T00:05:39;97471.75;;;16.30;45.89
75447;BME280;64024;55.820;37.574;2023-02-01T00:08:05;97469.34;;;16.29;45.98
75447;BME280;64024;55.820;37.574;2023-02-01T00:10:31;97470.97;;;16.30;45.94
75447;BME280;64024;55.820;37.574;2023-02-01T00:12:57;97471.75;;;16.30;46.12
75447;BME280;64024;55.820;37.574;2023-02-01T00:15:22;97469.88;;;16.31;46.02
75447;BME280;64024;55.820;37.574;2023-02-01T00:17:53;97476.03;;;16.31;45.91
75447;BME280;64024;55.820;37.574;2023-02-01T00:20:19;97468.78;;;16.32;45.99
75447;BME280;64024;55.820;37.574;2023-02-01T00:22:45;97471.47;;;16.32;45.87
75447;BME280;64024;55.820;37.574;2023-02-01T00:25:10;97466.91;;;16.32;45.92
75447;BME280;64024;55.820;37.574;2023-02-01T00:27:36;97469.56;;;16.32;46.04
75447;BME280;64024;55.820;37.574;2023-02-01T00:30:02;97466.09;;;16.32;45.99
75447;BME280;64024;55.820;37.574;2023-02-01T00:32:28;97479.50;;;16.32;46.10
75447;BME280;64024;55.820;37.574;2023-02-01T00:34:54;97469.09;;;16.30;45.93
75447;BME280;64024;55.820;37.574;2023-02-01T00:37:19;97469.09;;;16.30;46.23
75447;BME280;64024;55.820;37.574;2023-02-01T00:39:45;97463.91;;;16.34;46.16
75447;BME280;64024;55.820;37.574;2023-02-01T00:42:11;97467.34;;;16.39;46.25
75447;BME280;64024;55.820;37.574;2023-02-01T00:44:36;97474.22;;;16.46;46.24
75447;BME280;64024;55.820;37.574;2023-02-01T00:47:02;97469.38;;;16.48;46.17
75447;BME280;64024;55.820;37.574;2023-02-01T00:49:28;97472.34;;;16.46;45.97
75447;BME280;64024;55.820;37.574;2023-02-01T00:51:54;97465.38;;;16.45;46.00
75447;BME280;64024;55.820;37.574;2023-02-01T00:54:20;97469.47;;;16.43;45.95
75447;BME280;64024;55.820;37.574;2023-02-01T00:56:46;97465.16;;;16.41;46.15
75447;BME280;64024;55.820;37.574;2023-02-01T00:59:11;97458.50;;;16.39;46.15
75447;BME280;64024;55.820;37.574;2023-02-01T01:01:37;97464.94;;;16.38;45.75
75447;BME280;64024;55.820;37.574;2023-02-01T01:04:03;97473.28;;;16.36;46.12
75447;BME280;64024;55.820;37.574;2023-02-01T01:06:32;97469.81;;;16.36;45.89
75447;BME280;64024;55.820;37.574;2023-02-01T01:09:01;97468.22;;;16.35;45.88
75447;BME280;64024;55.820;37.574;2023-02-01T01:11:30;97478.41;;;16.33;46.04
75447;BME280;64024;55.820;37.574;2023-02-01T01:13:57;97468.47;;;16.33;45.89
75447;BME280;64024;55.820;37.574;2023-02-01T01:16:25;97480.31;;;16.32;45.53
75447;BME280;64024;55.820;37.574;2023-02-01T01:18:52;97473.34;;;16.31;45.62
75447;BME280;64024;55.820;37.574;2023-02-01T01:21:18;97475.50;;;16.29;45.68
75447;BME280;64024;55.820;37.574;2023-02-01T01:23:45;97477.41;;;16.29;45.29
75447;BME280;64024;55.820;37.574;2023-02-01T01:26:15;97476.59;;;16.28;45.34
75447;BME280;64024;55.820;37.574;2023-02-01T01:28:41;97479.28;;;16.28;45.33
75447;BME280;64024;55.820;37.574;2023-02-01T01:31:11;97483.84;;;16.28;45.48
75447;BME280;64024;55.820;37.574;2023-02-01T01:33:37;97480.38;;;16.27;45.43
75447;BME280;64024;55.820;37.574;2023-02-01T01:36:07;97482.53;;;16.25;45.12
75447;BME280;64024;55.820;37.574;2023-02-01T01:38:37;97488.97;;;16.24;45.14
75447;BME280;64024;55.820;37.574;2023-02-01T01:41:03;97495.13;;;16.25;45.20
75447;BME280;64024;55.820;37.574;2023-02-01T01:43:51;97485.22;;;16.25;45.12
75447;BME280;64024;55.820;37.574;2023-02-01T01:46:23;97490.88;;;16.24;45.06
75447;BME280;64024;55.820;37.574;2023-02-01T01:49:12;97491.97;;;16.23;45.12
75447;BME280;64024;55.820;37.574;2023-02-01T01:51:57;97490.06;;;16.23;45.18
75447;BME280;64024;55.820;37.574;2023-02-01T01:54:31;97494.91;;;16.21;45.26
75447;BME280;64024;55.820;37.574;2023-02-01T01:57:01;97490.94;;;16.19;44.93
75447;BME280;64024;55.820;37.574;2023-02-01T01:59:31;97496.31;;;16.19;44.74
75447;BME280;64024;55.820;37.574;2023-02-01T02:01:57;97490.41;;;16.16;44.96
75447;BME280;64024;55.820;37.574;2023-02-01T02:04:24;97493.09;;;16.16;45.01
75447;BME280;64024;55.820;37.574;2023-02-01T02:07:02;97486.94;;;16.16;45.02
75447;BME280;64024;55.820;37.574;2023-02-01T02:09:29;97494.19;;;16.15;44.95
75447;BME280;64024;55.820;37.574;2023-02-01T02:11:54;97488.03;;;16.15;44.99
75447;BME280;64024;55.820;37.574;2023-02-01T02:14:22;97489.13;;;16.14;44.95
75447;BME280;64024;55.820;37.574;2023-02-01T02:17:11;97497.66;;;16.16;44.96
75447;BME280;64024;55.820;37.574;2023-02-01T02:22:19;97492.88;;;16.13;44.70
75447;BME280;64024;55.820;37.574;2023-02-01T02:38:19;97501.50;;;16.10;44.77
75447;BME280;64024;55.820;37.574;2023-02-01T02:40:56;97499.88;;;16.09;44.65
75447;BME280;64024;55.820;37.574;2023-02-01T02:43:42;97501.50;;;16.10;44.66
75447;BME280;64024;55.820;37.574;2023-02-01T02:46:36;97512.22;;;16.10;44.33
75447;BME280;64024;55.820;37.574;2023-02-01T02:52:56;97505.25;;;16.09;44.41
75447;BME280;64024;55.820;37.574;2023-02-01T02:55:43;97508.22;;;16.07;44.26
75447;BME280;64024;55.820;37.574;2023-02-01T02:58:10;97514.13;;;16.04;44.47
75447;BME280;64024;55.820;37.574;2023-02-01T03:00:57;97508.78;;;16.04;44.85
75447;BME280;64024;55.820;37.574;2023-02-01T03:03:42;97518.69;;;16.04;44.34
75447;BME280;64024;55.820;37.574;2023-02-01T03:06:34;97515.22;;;16.03;44.01
75447;BME280;64024;55.820;37.574;2023-02-01T03:09:02;97509.06;;;16.03;44.44
75447;BME280;64024;55.820;37.574;2023-02-01T03:11:31;97509.88;;;16.03;44.31
75447;BME280;64024;55.820;37.574;2023-02-01T03:14:18;97509.88;;;16.03;44.59
75447;BME280;64024;55.820;37.574;2023-02-01T03:16:52;97501.03;;;16.03;44.56
75447;BME280;64024;55.820;37.574;2023-02-01T03:19:33;97504.22;;;16.05;45.18
75447;BME280;64024;55.820;37.574;2023-02-01T03:22:06;97500.63;;;16.14;45.05
75447;BME280;64024;55.820;37.574;2023-02-01T03:24:46;97504.97;;;16.10;45.24
75447;BME280;64024;55.820;37.574;2023-02-01T03:27:39;97507.91;;;16.09;45.47
75447;BME280;64024;55.820;37.574;2023-02-01T03:32:36;97508.50;;;16.06;45.54
75447;BME280;64024;55.820;37.574;2023-02-01T03:37:54;97514.94;;;16.05;45.71
75447;BME280;64024;55.820;37.574;2023-02-01T03:40:22;97517.59;;;16.05;46.05
75447;BME280;64024;55.820;37.574;2023-02-01T03:42:53;97517.59;;;16.05;46.11
75447;BME280;64024;55.820;37.574;2023-02-01T03:48:16;97530.75;;;16.06;45.97
75447;BME280;64024;55.820;37.574;2023-02-01T03:50:48;97529.16;;;16.05;45.84
75447;BME280;64024;55.820;37.574;2023-02-01T03:53:18;97538.00;;;16.06;46.07
75447;BME280;64024;55.820;37.574;2023-02-01T03:55:46;97538.00;;;16.06;45.97
75447;BME280;64024;55.820;37.574;2023-02-01T03:58:16;97536.09;;;16.06;46.11
75447;BME280;64024;55.820;37.574;2023-02-01T04:00:51;97536.09;;;16.06;46.14
75447;BME280;64024;55.820;37.574;2023-02-01T04:03:17;97548.41;;;16.07;46.05
75447;BME280;64024;55.820;37.574;2023-02-01T04:05:43;97549.22;;;16.08;46.12
75447;BME280;64024;55.820;37.574;2023-02-01T04:08:09;97544.94;;;16.07;46.33
75447;BME280;64024;55.820;37.574;2023-02-01T04:10:34;97548.41;;;16.07;46.29
75447;BME280;64024;55.820;37.574;2023-02-01T04:13:00;97548.41;;;16.07;45.98
75447;BME280;64024;55.820;37.574;2023-02-01T04:15:26;97551.09;;;16.07;46.33
75447;BME280;64024;55.820;37.574;2023-02-01T04:17:51;97557.25;;;16.08;46.29
75447;BME280;64024;55.820;37.574;2023-02-01T04:20:17;97558.03;;;16.08;46.18
75447;BME280;64024;55.820;37.574;2023-02-01T04:22:43;97559.66;;;16.09;46.35
75447;BME280;64024;55.820;37.574;2023-02-01T04:25:09;97558.03;;;16.08;46.43
75447;BME280;64024;55.820;37.574;2023-02-01T04:27:35;97556.16;;;16.09;46.00
75447;BME280;64024;55.820;37.574;2023-02-01T04:30:01;97570.38;;;16.09;46.10
75447;BME280;64024;55.820;37.574;2023-02-01T04:32:27;97563.94;;;16.10;46.27
75447;BME280;64024;55.820;37.574;2023-02-01T04:34:53;97560.44;;;16.10;46.25
75447;BME280;64024;55.820;37.574;2023-02-01T04:37:18;97570.88;;;16.11;46.50
75447;BME280;64024;55.820;37.574;2023-02-01T04:39:44;97573.56;;;16.11;46.43
75447;BME280;64024;55.820;37.574;2023-02-01T04:42:09;97568.44;;;16.15;46.47
75447;BME280;64024;55.820;37.574;2023-02-01T04:44:35;97572.59;;;16.26;46.65
75447;BME280;64024;55.820;37.574;2023-02-01T04:47:02;97572.94;;;16.44;46.42
75447;BME280;64024;55.820;37.574;2023-02-01T04:49:27;97580.94;;;16.68;46.27
75447;BME280;64024;55.820;37.574;2023-02-01T04:51:53;97579.84;;;16.93;45.80
75447;BME280;64024;55.820;37.574;2023-02-01T04:54:18;97578.16;;;17.15;45.72
75447;BME280;64024;55.820;37.574;2023-02-01T04:56:44;97580.75;;;17.39;45.07
75447;BME280;64024;55.820;37.574;2023-02-01T04:59:11;97583.59;;;17.62;44.72
75447;BME280;64024;55.820;37.574;2023-02-01T05:01:37;97593.25;;;17.82;44.49
75447;BME280;64024;55.820;37.574;2023-02-01T05:04:03;97589.41;;;18.02;43.96
75447;BME280;64024;55.820;37.574;2023-02-01T05:06:28;97588.50;;;18.20;43.98
75447;BME280;64024;55.820;37.574;2023-02-01T05:08:54;97588.75;;;18.37;43.53
75447;BME280;64024;55.820;37.574;2023-02-01T05:11:20;97584.34;;;18.55;43.34
75447;BME280;64024;55.820;37.574;2023-02-01T05:14:04;97593.13;;;18.75;42.99
75447;BME280;64024;55.820;37.574;2023-02-01T05:16:30;97593.09;;;18.88;42.91
75447;BME280;64024;55.820;37.574;2023-02-01T05:18:55;97595.19;;;18.92;42.75
75447;BME280;64024;55.820;37.574;2023-02-01T05:21:21;97598.47;;;18.88;42.55
75447;BME280;64024;55.820;37.574;2023-02-01T05:23:47;97591.91;;;18.81;42.55
75447;BME280;64024;55.820;37.574;2023-02-01T05:26:31;97594.53;;;18.72;42.65
75447;BME280;64024;55.820;37.574;2023-02-01T05:28:57;97602.94;;;18.66;42.57
75447;BME280;64024;55.820;37.574;2023-02-01T05:31:23;97593.41;;;18.59;42.76
75447;BME280;64024;55.820;37.574;2023-02-01T05:33:48;97598.09;;;18.54;42.65
75447;BME280;64024;55.820;37.574;2023-02-01T05:36:14;97608.47;;;18.47;43.00
75447;BME280;64024;55.820;37.574;2023-02-01T05:38:40;97603.47;;;18.40;42.89
75447;BME280;64024;55.820;37.574;2023-02-01T05:41:07;97608.16;;;18.34;42.99
75447;BME280;64024;55.820;37.574;2023-02-01T05:43:32;97615.22;;;18.30;42.94
75447;BME280;64024;55.820;37.574;2023-02-01T05:45:58;97609.94;;;18.25;43.18
75447;BME280;64024;55.820;37.574;2023-02-01T05:48:23;97610.84;;;18.21;43.46
75447;BME280;64024;55.820;37.574;2023-02-01T05:50:49;97613.31;;;18.17;43.47
75447;BME280;64024;55.820;37.574;2023-02-01T05:53:15;97614.22;;;18.12;43.58
75447;BME280;64024;55.820;37.574;2023-02-01T05:55:41;97616.69;;;18.09;43.75
75447;BME280;64024;55.820;37.574;2023-02-01T05:58:07;97621.06;;;18.05;43.87
75447;BME280;64024;55.820;37.574;2023-02-01T06:00:32;97626.25;;;18.01;43.94
75447;BME280;64024;55.820;37.574;2023-02-01T06:02:58;97623.34;;;17.98;43.79
75447;BME280;64024;55.820;37.574;2023-02-01T06:05:24;97626.63;;;17.95;43.87
75447;BME280;64024;55.820;37.574;2023-02-01T06:07:49;97624.81;;;17.90;43.91
75447;BME280;64024;55.820;37.574;2023-02-01T06:10:18;97624.59;;;17.86;44.01
75447;BME280;64024;55.820;37.574;2023-02-01T06:12:44;97633.28;;;17.83;43.97
75447;BME280;64024;55.820;37.574;2023-02-01T06:15:14;97634.97;;;17.79;43.99
75447;BME280;64024;55.820;37.574;2023-02-01T06:17:43;97638.25;;;17.90;44.07
75447;BME280;64024;55.820;37.574;2023-02-01T06:20:10;97640.03;;;17.81;44.03
75447;BME280;64024;55.820;37.574;2023-02-01T06:22:37;97634.19;;;17.74;43.93
75447;BME280;64024;55.820;37.574;2023-02-01T06:25:07;97630.81;;;17.68;44.28
75447;BME280;64024;55.820;37.574;2023-02-01T06:27:33;97631.38;;;17.65;44.15
75447;BME280;64024;55.820;37.574;2023-02-01T06:29:59;97639.22;;;17.61;44.41
75447;BME280;64024;55.820;37.574;2023-02-01T06:32:25;97631.78;;;17.58;44.34
75447;BME280;64024;55.820;37.574;2023-02-01T06:34:50;97629.66;;;17.55;44.44
75447;BME280;64024;55.820;37.574;2023-02-01T06:37:18;97646.03;;;17.54;44.60
75447;BME280;64024;55.820;37.574;2023-02-01T06:39:44;97643.97;;;17.51;44.58
75447;BME280;64024;55.820;37.574;2023-02-01T06:42:10;97642.66;;;17.48;44.61
75447;BME280;64024;55.820;37.574;2023-02-01T06:44:36;97647.53;;;17.46;44.53
75447;BME280;64024;55.820;37.574;2023-02-01T06:47:03;97647.00;;;17.44;44.80
75447;BME280;64024;55.820;37.574;2023-02-01T06:49:29;97651.16;;;17.55;44.92
75447;BME280;64024;55.820;37.574;2023-02-01T06:51:55;97652.31;;;17.49;44.81
75447;BME280;64024;55.820;37.574;2023-02-01T06:54:20;97656.97;;;17.44;44.85
75447;BME280;64024;55.820;37.574;2023-02-01T06:56:46;97657.53;;;17.40;45.28
75447;BME280;64024;55.820;37.574;2023-02-01T06:59:12;97653.03;;;17.36;45.06
75447;BME280;64024;55.820;37.574;2023-02-01T07:01:37;97650.34;;;17.36;45.14
75447;BME280;64024;55.820;37.574;2023-02-01T07:04:03;97654.13;;;17.35;45.59
75447;BME280;64024;55.820;37.574;2023-02-01T07:06:29;97658.72;;;17.34;45.40
75447;BME280;64024;55.820;37.574;2023-02-01T07:08:55;97657.91;;;17.34;45.42
75447;BME280;64024;55.820;37.574;2023-02-01T07:11:24;97654.72;;;17.32;45.59
75447;BME280;64024;55.820;37.574;2023-02-01T07:13:50;97659.59;;;17.30;45.43
75447;BME280;64024;55.820;37.574;2023-02-01T07:16:18;97657.47;;;17.27;45.38
75447;BME280;64024;55.820;37.574;2023-02-01T07:18:44;97658.25;;;17.27;45.43
75447;BME280;64024;55.820;37.574;2023-02-01T07:21:11;97664.19;;;17.24;45.53
75447;BME280;64024;55.820;37.574;2023-02-01T07:23:37;97674.16;;;17.24;45.49
75447;BME280;64024;55.820;37.574;2023-02-01T07:26:06;97676.03;;;17.23;45.51
75447;BME280;64024;55.820;37.574;2023-02-01T07:28:34;97673.66;;;17.22;45.58
75447;BME280;64024;55.820;37.574;2023-02-01T07:31:07;97680.09;;;17.21;45.38
75447;BME280;64024;55.820;37.574;2023-02-01T07:33:33;97687.22;;;17.30;45.31
75447;BME280;64024;55.820;37.574;2023-02-01T07:36:01;97681.09;;;17.25;45.22
75447;BME280;64024;55.820;37.574;2023-02-01T07:38:28;97676.91;;;17.19;45.30
75447;BME280;64024;55.820;37.574;2023-02-01T07:41:02;97679.06;;;17.17;45.28
75447;BME280;64024;55.820;37.574;2023-02-01T07:43:29;97677.47;;;17.15;45.35
75447;BME280;64024;55.820;37.574;2023-02-01T07:45:55;97679.66;;;17.13;45.34
75447;BME280;64024;55.820;37.574;2023-02-01T07:48:22;97674.56;;;17.12;45.37
75447;BME280;64024;55.820;37.574;2023-02-01T07:50:56;97676.84;;;17.24;45.26
75447;BME280;64024;55.820;37.574;2023-02-01T07:53:22;97673.69;;;17.17;45.32
75447;BME280;64024;55.820;37.574;2023-02-01T07:55:48;97674.56;;;17.12;45.20
75447;BME280;64024;55.820;37.574;2023-02-01T07:58:13;97676.75;;;17.10;45.19
75447;BME280;64024;55.820;37.574;2023-02-01T08:00:39;97672.47;;;17.09;45.28
75447;BME280;64024;55.820;37.574;2023-02-01T08:03:40;97677.56;;;17.10;45.22
75447;BME280;64024;55.820;37.574;2023-02-01T08:06:06;97674.34;;;17.08;45.21
75447;BME280;64024;55.820;37.574;2023-02-01T08:08:32;97671.16;;;17.06;45.35
75447;BME280;64024;55.820;37.574;2023-02-01T08:11:03;97670.88;;;17.08;45.30
75447;BME280;64024;55.820;37.574;2023-02-01T08:13:29;97670.06;;;17.07;45.42
75447;BME280;64024;55.820;37.574;2023-02-01T08:15:58;97667.38;;;17.07;45.17
75447;BME280;64024;55.820;37.574;2023-02-01T08:18:25;97670.88;;;17.08;45.27
75447;BME280;64024;55.820;37.574;2023-02-01T08:20:51;97670.06;;;17.07;45.22
75447;BME280;64024;55.820;37.574;2023-02-01T08:23:17;97662.03;;;17.07;45.16
75447;BME280;64024;55.820;37.574;2023-02-01T08:25:43;97663.91;;;17.07;45.17
75447;BME280;64024;55.820;37.574;2023-02-01T08:28:10;97667.38;;;17.07;45.21
75447;BME280;64024;55.820;37.574;2023-02-01T08:30:37;97668.97;;;17.08;45.06
75447;BME280;64024;55.820;37.574;2023-02-01T08:33:07;97667.91;;;17.09;44.97
75447;BME280;64024;55.820;37.574;2023-02-01T08:35:37;97665.22;;;17.09;44.98
75447;BME280;64024;55.820;37.574;2023-02-01T08:38:03;97666.03;;;17.10;44.94
75447;BME280;64024;55.820;37.574;2023-02-01T08:40:30;97667.91;;;17.09;44.91
75447;BME280;64024;55.820;37.574;2023-02-01T08:42:56;97669.81;;;17.09;44.98
75447;BME280;64024;55.820;37.574;2023-02-01T08:45:25;97670.59;;;17.09;44.90
75447;BME280;64024;55.820;37.574;2023-02-01T08:47:51;97673.28;;;17.09;44.72
75447;BME280;64024;55.820;37.574;2023-02-01T08:50:18;97660.91;;;17.08;44.85
75447;BME280;64024;55.820;37.574;2023-02-01T08:52:43;97667.13;;;17.09;44.72
75447;BME280;64024;55.820;37.574;2023-02-01T08:55:10;97660.44;;;17.06;44.76
75447;BME280;64024;55.820;37.574;2023-02-01T08:57:35;97663.91;;;17.07;44.66
75447;BME280;64024;55.820;37.574;2023-02-01T09:00:03;97647.81;;;17.07;44.85
75447;BME280;64024;55.820;37.574;2023-02-01T09:02:29;97646.13;;;17.11;44.69
75447;BME280;64024;55.820;37.574;2023-02-01T09:04:55;97658.41;;;17.17;44.63
75447;BME280;64024;55.820;37.574;2023-02-01T09:07:21;97656.38;;;17.28;44.49
75447;BME280;64024;55.820;37.574;2023-02-01T09:09:47;97656.50;;;17.36;44.33
75447;BME280;64024;55.820;37.574;2023-02-01T09:12:12;97654.56;;;17.42;44.58
75447;BME280;64024;55.820;37.574;2023-02-01T09:14:38;97650.72;;;17.48;44.28
75447;BME280;64024;55.820;37.574;2023-02-01T09:17:04;97642.56;;;17.53;43.95
75447;BME280;64024;55.820;37.574;2023-02-01T09:19:31;97641.19;;;17.56;43.91
75447;BME280;64024;55.820;37.574;2023-02-01T09:21:57;97646.28;;;17.57;43.72
75447;BME280;64024;55.820;37.574;2023-02-01T09:24:23;97649.75;;;17.58;43.65
75447;BME280;64024;55.820;37.574;2023-02-01T09:26:49;97640.63;;;17.59;43.81
75447;BME280;64024;55.820;37.574;2023-02-01T09:29:15;97644.59;;;17.61;43.61
75447;BME280;64024;55.820;37.574;2023-02-01T09:31:41;97642.69;;;17.62;43.85
75447;BME280;64024;55.820;37.574;2023-02-01T09:34:07;97630.88;;;17.63;43.70
75447;BME280;64024;55.820;37.574;2023-02-01T09:36:33;97633.75;;;17.67;43.76
75447;BME280;64024;55.820;37.574;2023-02-01T09:38:59;97627.81;;;17.70;43.57
75447;BME280;64024;55.820;37.574;2023-02-01T09:44:37;97618.91;;;17.74;43.83
75447;BME280;64024;55.820;37.574;2023-02-01T09:47:11;97618.00;;;17.79;43.83
75447;BME280;64024;55.820;37.574;2023-02-01T09:49:42;97616.63;;;17.81;44.07
75447;BME280;64024;55.820;37.574;2023-02-01T09:52:12;97634.56;;;17.86;44.10
75447;BME280;64024;55.820;37.574;2023-02-01T09:54:45;97638.25;;;17.90;44.23
75447;BME280;64024;55.820;37.574;2023-02-01T09:57:25;97628.50;;;17.94;43.87
75447;BME280;64024;55.820;37.574;2023-02-01T09:59:58;97622.84;;;17.96;43.92
75447;BME280;64024;55.820;37.574;2023-02-01T10:02:27;97623.94;;;17.95;43.84
75447;BME280;64024;55.820;37.574;2023-02-01T10:04:58;97630.19;;;17.90;43.66
75447;BME280;64024;55.820;37.574;2023-02-01T10:08:01;97625.41;;;17.87;43.69
75447;BME280;64024;55.820;37.574;2023-02-01T10:10:49;97619.00;;;17.83;43.84
75447;BME280;64024;55.820;37.574;2023-02-01T10:26:44;97615.66;;;17.58;44.19
75447;BME280;64024;55.820;37.574;2023-02-01T10:29:19;97615.94;;;17.57;44.12
75447;BME280;64024;55.820;37.574;2023-02-01T10:31:46;97617.81;;;17.56;44.21
75447;BME280;64024;55.820;37.574;2023-02-01T10:34:20;97621.50;;;17.60;44.37
75447;BME280;64024;55.820;37.574;2023-02-01T10:36:55;97622.03;;;17.62;44.02
75447;BME280;64024;55.820;37.574;2023-02-01T10:39:22;97625.22;;;17.64;44.17
75447;BME280;64024;55.820;37.574;2023-02-01T10:41:48;97617.63;;;17.67;44.29
75447;BME280;64024;55.820;37.574;2023-02-01T10:44:17;97630.81;;;17.68;44.15
75447;BME280;64024;55.820;37.574;2023-02-01T10:46:45;97628.31;;;17.72;44.23
75447;BME280;64024;55.820;37.574;2023-02-01T10:49:18;97624.28;;;17.74;44.13
75447;BME280;64024;55.820;37.574;2023-02-01T10:51:52;97627.75;;;17.75;44.07
75447;BME280;64024;55.820;37.574;2023-02-01T10:54:31;97621.91;;;17.86;44.11
75447;BME280;64024;55.820;37.574;2023-02-01T10:56:57;97618.22;;;17.82;44.02
75447;BME280;64024;55.820;37.574;2023-02-01T10:59:28;97623.09;;;17.80;44.07
75447;BME280;64024;55.820;37.574;2023-02-01T11:02:18;97617.72;;;17.80;44.22
75447;BME280;64024;55.820;37.574;2023-02-01T11:04:45;97626.59;;;17.81;44.21
75447;BME280;64024;55.820;37.574;2023-02-01T11:07:22;97620.91;;;17.82;44.32
75447;BME280;64024;55.820;37.574;2023-02-01T11:09:51;97624.91;;;17.85;44.36
75447;BME280;64024;55.820;37.574;2023-02-01T11:12:36;97623.00;;;17.85;44.25
75447;BME280;64024;55.820;37.574;2023-02-01T11:17:42;97619.31;;;17.81;44.21
75447;BME280;64024;55.820;37.574;2023-02-01T11:22:48;97626.13;;;17.74;44.41
75447;BME280;64024;55.820;37.574;2023-02-01T11:25:18;97625.91;;;17.70;44.44
75447;BME280;64024;55.820;37.574;2023-02-01T11:27:45;97631.06;;;17.67;44.46
75447;BME280;64024;55.820;37.574;2023-02-01T11:30:16;97633.19;;;17.70;44.56
75447;BME280;64024;55.820;37.574;2023-02-01T11:32:46;97633.41;;;17.73;44.53
75447;BME280;64024;55.820;37.574;2023-02-01T11:35:18;97630.16;;;17.76;44.57
75447;BME280;64024;55.820;37.574;2023-02-01T11:37:50;97634.13;;;17.79;44.49
75447;BME280;64024;55.820;37.574;2023-02-01T11:45:28;97641.19;;;17.75;44.40
75447;BME280;64024;55.820;37.574;2023-02-01T11:47:57;97641.25;;;17.70;44.47
75447;BME280;64024;55.820;37.574;2023-02-01T11:50:43;97641.81;;;17.67;44.48
75447;BME280;64024;55.820;37.574;2023-02-01T12:04:48;97653.97;;;17.45;44.50
75447;BME280;64024;55.820;37.574;2023-02-01T12:09:25;97646.00;;;17.40;44.67
75447;BME280;64024;55.820;37.574;2023-02-01T12:22:59;97659.84;;;17.28;45.03
75447;BME280;64024;55.820;37.574;2023-02-01T12:26:00;97659.34;;;17.26;45.31
75447;BME280;64024;55.820;37.574;2023-02-01T12:37:39;97657.59;;;17.17;45.62
75447;BME280;64024;55.820;37.574;2023-02-01T12:43:18;97657.66;;;17.11;45.64
75447;BME280;64024;55.820;37.574;2023-02-01T12:46:12;97666.03;;;17.10;45.94
75447;BME280;64024;55.820;37.574;2023-02-01T12:48:54;97659.34;;;17.07;45.79
75447;BME280;64024;55.820;37.574;2023-02-01T12:51:26;97663.13;;;17.06;45.68
75447;BME280;64024;55.820;37.574;2023-02-01T12:54:20;97668.13;;;17.13;45.74
75447;BME280;64024;55.820;37.574;2023-02-01T12:56:55;97668.94;;;17.13;45.74
75447;BME280;64024;55.820;37.574;2023-02-01T13:01:58;97666.03;;;17.10;45.87
75447;BME280;64024;55.820;37.574;2023-02-01T13:04:34;97662.03;;;17.07;45.93
75447;BME280;64024;55.820;37.574;2023-02-01T13:07:13;97666.88;;;17.05;46.01
75447;BME280;64024;55.820;37.574;2023-02-01T13:12:56;97661.28;;;17.02;46.08
75447;BME280;64024;55.820;37.574;2023-02-01T13:15:29;97667.22;;;16.99;46.02
75447;BME280;64024;55.820;37.574;2023-02-01T13:18:00;97664.84;;;16.97;46.02
75447;BME280;64024;55.820;37.574;2023-02-01T13:20:37;97667.81;;;16.96;46.21
75447;BME280;64024;55.820;37.574;2023-02-01T13:23:27;97670.00;;;16.94;45.97
75447;BME280;64024;55.820;37.574;2023-02-01T13:25:54;97671.34;;;16.91;46.00
75447;BME280;64024;55.820;37.574;2023-02-01T13:28:28;97665.50;;;16.89;45.85
75447;BME280;64024;55.820;37.574;2023-02-01T13:31:28;97672.44;;;16.90;45.98
75447;BME280;64024;55.820;37.574;2023-02-01T13:40:27;97668.75;;;16.86;45.86
75447;BME280;64024;55.820;37.574;2023-02-01T13:43:00;97673.88;;;16.82;45.49
75447;BME280;64024;55.820;37.574;2023-02-01T13:45:30;97675.25;;;16.80;45.66
75447;BME280;64024;55.820;37.574;2023-02-01T13:48:00;97679.00;;;16.79;45.85
75447;BME280;64024;55.820;37.574;2023-02-01T13:53:00;97675.03;;;16.76;45.65
75447;BME280;64024;55.820;37.574;2023-02-01T13:55:35;97675.81;;;16.77;45.82
75447;BME280;64024;55.820;37.574;2023-02-01T14:00:35;97678.28;;;16.73;45.97
75447;BME280;64024;55.820;37.574;2023-02-01T14:13:39;97681.50;;;16.70;45.72
75447;BME280;64024;55.820;37.574;2023-02-01T14:23:45;97686.41;;;16.63;45.57
75447;BME280;64024;55.820;37.574;2023-02-01T14:26:18;97683.75;;;16.63;45.68
75447;BME280;64024;55.820;37.574;2023-02-01T14:28:57;97686.41;;;16.63;45.45
75447;BME280;64024;55.820;37.574;2023-02-01T14:33:56;97683.16;;;16.66;45.35
75447;BME280;64024;55.820;37.574;2023-02-01T14:36:23;97680.22;;;16.62;45.51
75447;BME280;64024;55.820;37.574;2023-02-01T14:38:50;97684.31;;;16.60;45.39
75447;BME280;64024;55.820;37.574;2023-02-01T14:41:30;97693.16;;;16.60;45.61
75447;BME280;64024;55.820;37.574;2023-02-01T14:49:36;97687.53;;;16.57;45.24
75447;BME280;64024;55.820;37.574;2023-02-01T14:52:08;97690.22;;;16.57;45.49
75447;BME280;64024;55.820;37.574;2023-02-01T14:54:36;97690.53;;;16.55;45.46
75447;BME280;64024;55.820;37.574;2023-02-01T14:57:03;97689.72;;;16.55;45.39
75447;BME280;64024;55.820;37.574;2023-02-01T14:59:30;97705.00;;;16.54;45.27
75447;BME280;64024;55.820;37.574;2023-02-01T15:02:02;97703.13;;;16.55;45.44
75447;BME280;64024;55.820;37.574;2023-02-01T15:04:42;97704.44;;;16.57;45.57
75447;BME280;64024;55.820;37.574;2023-02-01T15:07:12;97708.44;;;16.60;45.69
75447;BME280;64024;55.820;37.574;2023-02-01T15:09:43;97701.13;;;16.65;45.40
75447;BME280;64024;55.820;37.574;2023-02-01T15:15:10;97694.06;;;16.75;45.46
75447;BME280;64024;55.820;37.574;2023-02-01T15:17:36;97702.66;;;16.77;45.25
75447;BME280;64024;55.820;37.574;2023-02-01T15:20:13;97703.75;;;16.76;45.29
75447;BME280;64024;55.820;37.574;2023-02-01T15:22:39;97696.75;;;16.75;45.24